This is the latest recevied weather packets stored in our database for station/object DL3MEB-6. If no packets are shown the sender has not sent any weather packets the latest 10 day(s).
| Time | Temp. | Humidity | Pressure | Rain* | Wind** | Luminosity | Snow |
|---|---|---|---|---|---|---|---|
| 1788162157 | 19.44° C | 80% | 1015.9 hPa | 0 mm | - | - | - |
| 1788161252 | 19.44° C | 82% | 1015.8 hPa | 0 mm | - | - | - |
| 1788160344 | 18.89° C | 85% | 1015.7 hPa | 0 mm | - | - | - |
| 1788159440 | 18.33° C | 88% | 1015.4 hPa | 0 mm | - | - | - |
| 1788158538 | 17.78° C | 89% | 1015.3 hPa | 0 mm | - | - | - |
| 1788157631 | 17.22° C | 92% | 1015.3 hPa | 0 mm | - | - | - |
| 1788156724 | 16.67° C | 95% | 1015.1 hPa | 0 mm | - | - | - |
| 1788155822 | 16.67° C | 96% | 1015.1 hPa | 0 mm | - | - | - |
| 1788154909 | 16.11° C | 95% | 1015 hPa | 0 mm | - | - | - |
| 1788153100 | 16.67° C | 94% | 1014.5 hPa | 0 mm | - | - | - |
| 1788152193 | 16.67° C | 94% | 1014.3 hPa | 0 mm | - | - | - |
| 1788151287 | 16.67° C | 94% | 1014.3 hPa | 0 mm | - | - | - |
| 1788150377 | 16.67° C | 94% | 1014.3 hPa | 0 mm | - | - | - |
| 1788149469 | 16.67° C | 94% | 1013.8 hPa | 0 mm | - | - | - |
| 1788148567 | 17.22° C | 93% | 1013.6 hPa | 0 mm | - | - | - |
| 1788147659 | 17.22° C | 92% | 1014.1 hPa | 0 mm | - | - | - |
| 1788146749 | 17.78° C | 90% | 1014.6 hPa | 3.05 mm | - | - | - |
| 1788145848 | 18.33° C | 88% | 1014.5 hPa | 0 mm | - | - | - |
| 1788144941 | 17.78° C | 91% | 1011.9 hPa | 0 mm | - | - | - |
| 1788144034 | 17.78° C | 90% | 1011.9 hPa | 0 mm | - | - | - |
| 1788143130 | 17.78° C | 90% | 1012 hPa | 0 mm | - | - | - |
| 1788142220 | 17.78° C | 89% | 1011.7 hPa | 0 mm | - | - | - |
| 1788141317 | 17.78° C | 89% | 1012.1 hPa | 0 mm | - | - | - |
| 1788140406 | 17.78° C | 88% | 1012.1 hPa | 0 mm | - | - | - |
| 1788139500 | 17.78° C | 88% | 1012.3 hPa | 0 mm | - | - | - |
* Rain latest hour (hover to see other rain measurements)
** Current wind speed in m/s (hover to see current wind gust speed)